createdAt,value
2018-05-26T00:00:25.314Z,0.00
2018-05-26T00:02:18.695Z,0.00
2018-05-26T00:03:18.537Z,0.00
2018-05-26T00:05:11.842Z,0.00
2018-05-26T00:06:11.762Z,0.00
2018-05-26T00:08:05.039Z,0.00
2018-05-26T00:09:04.979Z,0.00
2018-05-26T00:10:58.388Z,0.00
2018-05-26T00:11:58.276Z,0.00
2018-05-26T00:13:51.590Z,0.00
2018-05-26T00:14:51.504Z,0.00
2018-05-26T00:16:44.787Z,0.00
2018-05-26T00:17:44.730Z,0.00
2018-05-26T00:19:38.137Z,0.00
2018-05-26T00:20:37.953Z,0.00
2018-05-26T00:22:31.343Z,0.00
2018-05-26T00:23:31.185Z,0.00
2018-05-26T00:25:24.486Z,0.00
2018-05-26T00:26:24.409Z,0.00
2018-05-26T00:28:17.695Z,0.00
2018-05-26T00:29:17.635Z,0.00
2018-05-26T00:31:10.938Z,0.00
2018-05-26T00:32:10.860Z,0.00
2018-05-26T00:34:04.164Z,0.00
2018-05-26T00:35:04.092Z,0.00
2018-05-26T00:36:57.393Z,0.00
2018-05-26T00:37:57.313Z,0.00
2018-05-26T00:39:50.620Z,0.00
2018-05-26T00:40:50.537Z,0.00
2018-05-26T00:42:43.821Z,0.00
2018-05-26T00:43:43.765Z,0.00
2018-05-26T00:45:37.093Z,0.00
2018-05-26T00:46:36.988Z,0.00
2018-05-26T00:48:30.331Z,0.00
2018-05-26T00:49:30.273Z,0.00
2018-05-26T00:51:23.577Z,0.00
2018-05-26T00:52:23.500Z,0.00
2018-05-26T00:54:16.803Z,0.00
2018-05-26T00:55:16.723Z,0.00
2018-05-26T00:57:10.009Z,0.00
2018-05-26T00:58:09.950Z,0.00
2018-05-26T01:00:03.300Z,0.00
2018-05-26T01:01:03.175Z,0.00
2018-05-26T01:02:56.460Z,0.00
2018-05-26T01:03:56.400Z,0.00
2018-05-26T01:05:49.703Z,0.00
2018-05-26T01:06:49.628Z,0.00
2018-05-26T01:08:42.910Z,0.00
2018-05-26T01:09:42.851Z,0.00
2018-05-26T01:11:36.153Z,0.00
2018-05-26T01:12:36.075Z,0.00
2018-05-26T01:14:29.481Z,0.00
2018-05-26T01:15:29.302Z,0.00
2018-05-26T01:17:22.685Z,0.00
2018-05-26T01:18:22.529Z,0.00
2018-05-26T01:20:15.940Z,0.00
2018-05-26T01:21:15.753Z,0.00
2018-05-26T01:23:09.040Z,0.00
2018-05-26T01:24:08.980Z,0.00
2018-05-26T01:26:02.352Z,0.00
2018-05-26T01:27:02.274Z,0.00
2018-05-26T01:28:55.557Z,0.00
2018-05-26T01:29:55.499Z,0.00
2018-05-26T01:31:48.803Z,0.00
2018-05-26T01:32:48.727Z,0.00
2018-05-26T01:34:42.026Z,0.00
2018-05-26T01:35:41.949Z,0.00
2018-05-26T01:37:35.236Z,0.00
2018-05-26T01:38:35.177Z,0.00
2018-05-26T01:40:28.478Z,0.00
2018-05-26T01:41:28.398Z,0.00
2018-05-26T01:43:21.682Z,0.00
2018-05-26T01:44:21.625Z,0.00
2018-05-26T01:46:14.925Z,0.00
2018-05-26T01:47:14.850Z,0.00
2018-05-26T01:49:08.130Z,0.00
2018-05-26T01:50:08.071Z,0.00
2018-05-26T01:52:01.373Z,0.00
2018-05-26T01:53:01.294Z,0.00
2018-05-26T01:54:54.596Z,0.00
2018-05-26T01:55:54.518Z,0.00
2018-05-26T01:57:47.796Z,0.00
2018-05-26T01:58:47.738Z,0.00
2018-05-26T02:00:41.138Z,0.00
2018-05-26T02:01:40.956Z,0.00
2018-05-26T02:03:34.332Z,0.00
2018-05-26T02:04:34.279Z,0.00
2018-05-26T02:06:27.574Z,0.00
2018-05-26T02:07:27.496Z,0.00
2018-05-26T02:09:20.883Z,0.00
2018-05-26T02:10:20.720Z,0.00
2018-05-26T02:12:14.018Z,0.00
2018-05-26T02:13:13.942Z,0.00
2018-05-26T02:15:07.242Z,0.00
2018-05-26T02:16:07.161Z,0.00
2018-05-26T02:18:00.445Z,0.00
2018-05-26T02:19:00.384Z,0.00
2018-05-26T02:20:53.789Z,0.00
2018-05-26T02:21:53.607Z,0.00
2018-05-26T02:23:47.491Z,0.00
2018-05-26T02:24:46.828Z,0.00
2018-05-26T02:26:40.130Z,0.00
2018-05-26T02:27:40.050Z,0.00
2018-05-26T02:29:33.331Z,0.00
2018-05-26T02:30:33.272Z,0.00
2018-05-26T02:32:26.574Z,0.00
2018-05-26T02:33:26.502Z,0.00
2018-05-26T02:35:19.897Z,0.00
2018-05-26T02:36:19.718Z,0.00
2018-05-26T02:38:13.043Z,4.00
2018-05-26T02:39:12.928Z,4.00
2018-05-26T02:41:06.231Z,4.00
2018-05-26T02:42:06.148Z,4.00
2018-05-26T02:43:59.430Z,4.00
2018-05-26T02:44:59.369Z,4.00
2018-05-26T02:46:52.672Z,4.00
2018-05-26T02:47:52.591Z,4.00
2018-05-26T02:49:45.975Z,4.00
2018-05-26T02:50:45.811Z,4.00
2018-05-26T02:52:39.116Z,8.00
2018-05-26T02:53:39.035Z,8.00
2018-05-26T02:55:32.356Z,12.00
2018-05-26T02:56:32.274Z,12.00
2018-05-26T02:58:25.552Z,16.00
2018-05-26T02:59:25.530Z,20.00
2018-05-26T03:01:18.792Z,28.00
2018-05-26T03:02:18.714Z,28.00
2018-05-26T03:04:12.008Z,40.00
2018-05-26T03:05:11.936Z,44.00
2018-05-26T03:07:05.236Z,52.00
2018-05-26T03:08:05.161Z,60.00
2018-05-26T03:09:58.543Z,76.00
2018-05-26T03:10:58.397Z,84.00
2018-05-26T03:12:51.699Z,104.00
2018-05-26T03:13:51.615Z,116.00
2018-05-26T03:15:45.019Z,136.00
2018-05-26T03:16:44.838Z,148.00
2018-05-26T03:18:38.221Z,172.00
2018-05-26T03:19:38.062Z,188.00
2018-05-26T03:21:31.363Z,216.00
2018-05-26T03:22:31.284Z,236.00
2018-05-26T03:24:24.666Z,276.00
2018-05-26T03:25:24.503Z,296.00
2018-05-26T03:27:18.412Z,336.00
2018-05-26T03:28:17.716Z,360.00
2018-05-26T03:30:11.101Z,404.00
2018-05-26T03:31:10.942Z,436.00
2018-05-26T03:33:04.350Z,488.00
2018-05-26T03:34:04.159Z,516.00
2018-05-26T03:35:57.466Z,576.00
2018-05-26T03:36:57.387Z,612.00
2018-05-26T03:38:50.669Z,676.00
2018-05-26T03:39:50.607Z,712.00
2018-05-26T03:41:43.908Z,780.00
2018-05-26T03:42:43.828Z,816.00
2018-05-26T03:44:37.117Z,888.00
2018-05-26T03:45:37.058Z,928.00
2018-05-26T03:47:30.360Z,1000.00
2018-05-26T03:48:30.281Z,1040.00
2018-05-26T03:50:23.562Z,1120.00
2018-05-26T03:51:23.503Z,1164.00
2018-05-26T03:53:16.805Z,1248.00
2018-05-26T03:54:16.723Z,1296.00
2018-05-26T03:56:10.027Z,1384.00
2018-05-26T03:57:09.946Z,1436.00
2018-05-26T03:59:03.226Z,1532.00
2018-05-26T04:00:03.170Z,1588.00
2018-05-26T04:01:56.573Z,1684.00
2018-05-26T04:02:56.392Z,1732.00
2018-05-26T04:04:49.673Z,1832.00
2018-05-26T04:05:49.631Z,1884.00
2018-05-26T04:07:42.910Z,2000.00
2018-05-26T04:08:42.825Z,2060.00
2018-05-26T04:10:36.212Z,2184.00
2018-05-26T04:11:36.050Z,2244.00
2018-05-26T04:13:29.459Z,2360.00
2018-05-26T04:14:29.274Z,2416.00
2018-05-26T04:16:22.576Z,2520.00
2018-05-26T04:17:22.498Z,2580.00
2018-05-26T04:19:15.783Z,2708.00
2018-05-26T04:20:15.721Z,2780.00
2018-05-26T04:22:09.022Z,2892.00
2018-05-26T04:23:08.945Z,2944.00
2018-05-26T04:25:02.227Z,3000.00
2018-05-26T04:26:02.169Z,3012.00
2018-05-26T04:27:55.467Z,3040.00
2018-05-26T04:28:55.384Z,3076.00
2018-05-26T04:30:48.667Z,3144.00
2018-05-26T04:31:48.606Z,3184.00
2018-05-26T04:33:42.012Z,3244.00
2018-05-26T04:34:41.830Z,3276.00
2018-05-26T04:36:35.134Z,3292.00
2018-05-26T04:37:35.054Z,3296.00
2018-05-26T04:39:28.336Z,3300.00
2018-05-26T04:40:28.278Z,3304.00
2018-05-26T04:42:21.589Z,3304.00
2018-05-26T04:43:21.503Z,3308.00
2018-05-26T04:45:14.888Z,3316.00
2018-05-26T04:46:14.726Z,3328.00
2018-05-26T04:48:08.021Z,3364.00
2018-05-26T04:49:07.943Z,3380.00
2018-05-26T04:51:01.229Z,3432.00
2018-05-26T04:52:01.167Z,3468.00
2018-05-26T04:53:54.471Z,3520.00
2018-05-26T04:54:54.392Z,3568.00
2018-05-26T04:56:47.691Z,3716.00
2018-05-26T04:57:47.619Z,3804.00
2018-05-26T04:59:40.903Z,3956.00
2018-05-26T05:00:40.845Z,4032.00
2018-05-26T05:02:34.147Z,4224.00
2018-05-26T05:03:34.069Z,4324.00
2018-05-26T05:05:27.352Z,4464.00
2018-05-26T05:06:27.296Z,4528.00
2018-05-26T05:08:20.699Z,4612.00
2018-05-26T05:09:20.520Z,4636.00
2018-05-26T05:11:13.804Z,4632.00
2018-05-26T05:12:13.745Z,4644.00
2018-05-26T05:14:07.048Z,4688.00
2018-05-26T05:15:06.969Z,4716.00
2018-05-26T05:17:00.359Z,4792.00
2018-05-26T05:18:00.275Z,4828.00
2018-05-26T05:19:53.547Z,4892.00
2018-05-26T05:20:53.490Z,4936.00
2018-05-26T05:22:46.827Z,5020.00
2018-05-26T05:23:46.707Z,5068.00
2018-05-26T05:25:39.980Z,5160.00
2018-05-26T05:26:39.930Z,5204.00
2018-05-26T05:28:33.219Z,5280.00
2018-05-26T05:29:33.139Z,5316.00
2018-05-26T05:31:26.415Z,5384.00
2018-05-26T05:32:26.375Z,5428.00
2018-05-26T05:34:19.686Z,5520.00
2018-05-26T05:35:19.613Z,5568.00
2018-05-26T05:37:23.953Z,5692.00
2018-05-26T05:38:23.876Z,5752.00
2018-05-26T05:40:17.264Z,5908.00
2018-05-26T05:41:17.096Z,5968.00
2018-05-26T05:43:10.498Z,6052.00
2018-05-26T05:44:10.315Z,6092.00
2018-05-26T05:46:03.598Z,6152.00
2018-05-26T05:47:03.542Z,6172.00
2018-05-26T05:48:56.834Z,6208.00
2018-05-26T05:49:56.756Z,6228.00
2018-05-26T05:51:50.034Z,6312.00
2018-05-26T05:52:49.975Z,6376.00
2018-05-26T05:54:43.337Z,6464.00
2018-05-26T05:55:43.190Z,6496.00
2018-05-26T05:57:36.491Z,6548.00
2018-05-26T05:58:36.411Z,6556.00
2018-05-26T06:00:29.685Z,6568.00
2018-05-26T06:01:29.633Z,6556.00
2018-05-26T06:03:22.933Z,6528.00
2018-05-26T06:04:22.861Z,6512.00
2018-05-26T06:06:16.154Z,6492.00
2018-05-26T06:07:16.085Z,6484.00
2018-05-26T06:09:09.373Z,6532.00
2018-05-26T06:10:09.293Z,6564.00
2018-05-26T06:12:02.569Z,6588.00
2018-05-26T06:13:02.511Z,6620.00
2018-05-26T06:14:55.975Z,6768.00
2018-05-26T06:15:55.729Z,6872.00
2018-05-26T06:17:49.030Z,7124.00
2018-05-26T06:18:48.952Z,7368.00
2018-05-26T06:20:42.336Z,10876.00
2018-05-26T06:21:42.279Z,13028.00
2018-05-26T06:23:35.575Z,13748.00
2018-05-26T06:24:35.500Z,13340.00
2018-05-26T06:26:28.782Z,12508.00
2018-05-26T06:27:28.720Z,12892.00
2018-05-26T06:29:22.020Z,13176.00
2018-05-26T06:30:21.945Z,13324.00
2018-05-26T06:32:15.223Z,14528.00
2018-05-26T06:33:15.168Z,14752.00
2018-05-26T06:35:08.484Z,15552.00
2018-05-26T06:36:08.405Z,15584.00
2018-05-26T06:38:01.705Z,15200.00
2018-05-26T06:39:01.634Z,15040.00
2018-05-26T06:40:54.925Z,14144.00
2018-05-26T06:41:54.896Z,14336.00
2018-05-26T06:43:48.174Z,13920.00
2018-05-26T06:44:48.100Z,13564.00
2018-05-26T06:46:41.383Z,12952.00
2018-05-26T06:47:41.332Z,12916.00
2018-05-26T06:49:34.630Z,12664.00
2018-05-26T06:50:34.560Z,12568.00
2018-05-26T06:52:27.843Z,12320.00
2018-05-26T06:53:27.789Z,12484.00
2018-05-26T06:55:21.093Z,12240.00
2018-05-26T06:56:21.021Z,12028.00
2018-05-26T06:58:14.357Z,12156.00
2018-05-26T06:59:14.284Z,12092.00
2018-05-26T07:01:07.568Z,12120.00
2018-05-26T07:02:07.515Z,11976.00
2018-05-26T07:04:00.822Z,11844.00
2018-05-26T07:05:00.746Z,11920.00
2018-05-26T07:06:54.033Z,11628.00
2018-05-26T07:07:53.978Z,11748.00
2018-05-26T07:09:47.897Z,11456.00
2018-05-26T07:10:47.215Z,11340.00
2018-05-26T07:12:40.500Z,11308.00
2018-05-26T07:13:40.445Z,10908.00
2018-05-26T07:15:33.752Z,10764.00
2018-05-26T07:16:33.687Z,10524.00
2018-05-26T07:18:26.990Z,10216.00
2018-05-26T07:19:26.914Z,10280.00
2018-05-26T07:21:20.203Z,9952.00
2018-05-26T07:22:20.150Z,10092.00
2018-05-26T07:24:13.566Z,9832.00
2018-05-26T07:25:12.900Z,9904.00
2018-05-26T07:27:06.180Z,9672.00
2018-05-26T07:28:06.128Z,9736.00
2018-05-26T07:29:59.542Z,9676.00
2018-05-26T07:30:59.364Z,9828.00
2018-05-26T07:32:52.653Z,9804.00
2018-05-26T07:33:52.603Z,9808.00
2018-05-26T07:35:45.905Z,10080.00
2018-05-26T07:36:45.828Z,9904.00
2018-05-26T07:38:38.652Z,9996.00
2018-05-26T07:39:38.581Z,9972.00
2018-05-26T07:41:31.484Z,9848.00
2018-05-26T07:42:31.331Z,9732.00
2018-05-26T07:44:24.631Z,9560.00
2018-05-26T07:45:24.563Z,9632.00
2018-05-26T07:47:17.910Z,9684.00
2018-05-26T07:48:17.799Z,9760.00
2018-05-26T07:50:11.110Z,9788.00
2018-05-26T07:51:11.039Z,9852.00
2018-05-26T07:53:04.354Z,9868.00
2018-05-26T07:54:04.288Z,9788.00
2018-05-26T07:55:57.597Z,9704.00
2018-05-26T07:56:57.523Z,9680.00
2018-05-26T07:58:50.932Z,9720.00
2018-05-26T07:59:50.766Z,9692.00
2018-05-26T08:01:44.057Z,9624.00
2018-05-26T08:02:44.004Z,9588.00
2018-05-26T08:04:37.313Z,9476.00
2018-05-26T08:05:37.244Z,9348.00
2018-05-26T08:07:30.536Z,9296.00
2018-05-26T08:08:30.486Z,9212.00
2018-05-26T08:10:23.903Z,9140.00
2018-05-26T08:11:23.727Z,9064.00
2018-05-26T08:13:17.016Z,8932.00
2018-05-26T08:14:16.964Z,8920.00
2018-05-26T08:16:10.355Z,8908.00
2018-05-26T08:17:10.318Z,8900.00
2018-05-26T08:19:03.603Z,8740.00
2018-05-26T08:20:03.533Z,8708.00
2018-05-26T08:21:56.930Z,8652.00
2018-05-26T08:22:56.771Z,8636.00
2018-05-26T08:24:50.081Z,8572.00
2018-05-26T08:25:50.011Z,8572.00
2018-05-26T08:27:43.302Z,8444.00
2018-05-26T08:28:43.254Z,8388.00
2018-05-26T08:30:36.663Z,8296.00
2018-05-26T08:31:36.509Z,8300.00
2018-05-26T08:33:29.795Z,8308.00
2018-05-26T08:34:29.743Z,8220.00
2018-05-26T08:36:23.052Z,8228.00
2018-05-26T08:37:22.981Z,8280.00
2018-05-26T08:39:16.361Z,8228.00
2018-05-26T08:40:16.293Z,8284.00
2018-05-26T08:42:09.578Z,8292.00
2018-05-26T08:43:09.527Z,8316.00
2018-05-26T08:45:02.842Z,8332.00
2018-05-26T08:46:02.765Z,8364.00
2018-05-26T08:47:56.054Z,8296.00
2018-05-26T08:48:56.004Z,8340.00
2018-05-26T08:50:49.421Z,8412.00
2018-05-26T08:51:49.243Z,8416.00
2018-05-26T08:53:42.543Z,8496.00
2018-05-26T08:54:42.486Z,8504.00
2018-05-26T08:56:35.788Z,8548.00
2018-05-26T08:57:35.715Z,8480.00
2018-05-26T08:59:29.132Z,8608.00
2018-05-26T09:00:28.965Z,8636.00
2018-05-26T09:02:22.429Z,8740.00
2018-05-26T09:03:22.289Z,8772.00
2018-05-26T09:05:15.614Z,8700.00
2018-05-26T09:06:15.538Z,8632.00
2018-05-26T09:08:08.830Z,8792.00
2018-05-26T09:09:08.779Z,8780.00
2018-05-26T09:11:02.100Z,8788.00
2018-05-26T09:12:02.033Z,8752.00
2018-05-26T09:13:55.321Z,8764.00
2018-05-26T09:14:55.308Z,8768.00
2018-05-26T09:16:48.579Z,8616.00
2018-05-26T09:17:48.559Z,8724.00
2018-05-26T09:19:41.818Z,8664.00
2018-05-26T09:20:41.752Z,8740.00
2018-05-26T09:22:35.040Z,8844.00
2018-05-26T09:23:34.988Z,8800.00
2018-05-26T09:25:28.433Z,8800.00
2018-05-26T09:26:28.304Z,8904.00
2018-05-26T09:28:21.584Z,8904.00
2018-05-26T09:29:21.532Z,8908.00
2018-05-26T09:31:14.851Z,8964.00
2018-05-26T09:32:14.775Z,8972.00
2018-05-26T09:34:08.064Z,8828.00
2018-05-26T09:35:08.014Z,8828.00
2018-05-26T09:37:01.335Z,9020.00
2018-05-26T09:38:01.265Z,9032.00
2018-05-26T09:39:54.578Z,9020.00
2018-05-26T09:40:54.507Z,9060.00
2018-05-26T09:42:47.799Z,9024.00
2018-05-26T09:43:47.805Z,9048.00
2018-05-26T09:45:41.062Z,9120.00
2018-05-26T09:46:40.992Z,9052.00
2018-05-26T09:48:34.342Z,9112.00
2018-05-26T09:49:34.292Z,9024.00
2018-05-26T09:51:27.602Z,8924.00
2018-05-26T09:52:27.533Z,9120.00
2018-05-26T09:54:20.936Z,9040.00
2018-05-26T09:55:20.777Z,9144.00
2018-05-26T09:57:14.089Z,9288.00
2018-05-26T09:58:14.022Z,9328.00
2018-05-26T10:00:07.333Z,9276.00
2018-05-26T10:01:07.267Z,9372.00
2018-05-26T10:03:00.667Z,9512.00
2018-05-26T10:04:00.508Z,9520.00
2018-05-26T10:05:53.928Z,9608.00
2018-05-26T10:06:53.752Z,9592.00
2018-05-26T10:08:47.150Z,9616.00
2018-05-26T10:09:46.994Z,9616.00
2018-05-26T10:11:40.364Z,9512.00
2018-05-26T10:12:40.295Z,9428.00
2018-05-26T10:14:33.607Z,9108.00
2018-05-26T10:15:33.539Z,9084.00
2018-05-26T10:17:26.852Z,9304.00
2018-05-26T10:18:26.785Z,9336.00
2018-05-26T10:20:20.204Z,9504.00
2018-05-26T10:21:20.027Z,9408.00
2018-05-26T10:23:13.322Z,9292.00
2018-05-26T10:24:13.277Z,9200.00
2018-05-26T10:26:06.587Z,9200.00
2018-05-26T10:27:06.520Z,9260.00
2018-05-26T10:28:59.916Z,9140.00
2018-05-26T10:29:59.803Z,9104.00
2018-05-26T10:31:53.117Z,8948.00
2018-05-26T10:32:53.042Z,8908.00
2018-05-26T10:34:46.373Z,8884.00
2018-05-26T10:35:46.297Z,8816.00
2018-05-26T10:37:39.593Z,8892.00
2018-05-26T10:38:39.562Z,8948.00
2018-05-26T10:40:32.867Z,8976.00
2018-05-26T10:41:32.805Z,8952.00
2018-05-26T10:43:26.090Z,9004.00
2018-05-26T10:44:26.097Z,9040.00
2018-05-26T10:46:18.883Z,8916.00
2018-05-26T10:47:18.814Z,9000.00
2018-05-26T10:49:12.210Z,9144.00
2018-05-26T10:50:12.056Z,9140.00
2018-05-26T10:52:05.473Z,8740.00
2018-05-26T10:53:05.300Z,8972.00
2018-05-26T10:54:58.722Z,8560.00
2018-05-26T10:55:58.595Z,8752.00
2018-05-26T10:57:51.839Z,8928.00
2018-05-26T10:58:51.790Z,8952.00
2018-05-26T11:00:45.105Z,9112.00
2018-05-26T11:01:45.038Z,9232.00
2018-05-26T11:03:38.341Z,9128.00
2018-05-26T11:04:38.293Z,9096.00
2018-05-26T11:06:31.607Z,9000.00
2018-05-26T11:07:31.539Z,9040.00
2018-05-26T11:09:24.831Z,9000.00
2018-05-26T11:10:24.785Z,8968.00
2018-05-26T11:12:18.201Z,8892.00
2018-05-26T11:13:18.040Z,8868.00
2018-05-26T11:15:11.529Z,8904.00
2018-05-26T11:16:11.449Z,8808.00
2018-05-26T11:18:04.694Z,8760.00
2018-05-26T11:19:04.556Z,8724.00
2018-05-26T11:20:57.863Z,8652.00
2018-05-26T11:21:57.799Z,8624.00
2018-05-26T11:23:51.195Z,8516.00
2018-05-26T11:24:51.101Z,8440.00
2018-05-26T11:26:44.373Z,8252.00
2018-05-26T11:27:44.307Z,8012.00
2018-05-26T11:29:37.648Z,7884.00
2018-05-26T11:30:37.561Z,7880.00
2018-05-26T11:32:30.888Z,7880.00
2018-05-26T11:33:30.819Z,7860.00
2018-05-26T11:35:24.146Z,7660.00
2018-05-26T11:36:24.080Z,7540.00
2018-05-26T11:38:17.381Z,7564.00
2018-05-26T11:39:17.343Z,7584.00
2018-05-26T11:41:10.658Z,7032.00
2018-05-26T11:42:10.587Z,6648.00
2018-05-26T11:44:03.889Z,6432.00
2018-05-26T11:45:03.835Z,6396.00
2018-05-26T11:46:57.159Z,6308.00
2018-05-26T11:47:57.088Z,6240.00
2018-05-26T11:49:50.388Z,6380.00
2018-05-26T11:50:50.340Z,6416.00
2018-05-26T11:52:43.648Z,6388.00
2018-05-26T11:53:43.576Z,6424.00
2018-05-26T11:55:36.884Z,6436.00
2018-05-26T11:56:36.816Z,6416.00
2018-05-26T11:58:30.106Z,6380.00
2018-05-26T11:59:30.070Z,6480.00
2018-05-26T12:01:23.392Z,6404.00
2018-05-26T12:02:23.320Z,6404.00
2018-05-26T12:04:16.606Z,6384.00
2018-05-26T12:05:16.564Z,6436.00
2018-05-26T12:07:09.863Z,6440.00
2018-05-26T12:08:09.791Z,6444.00
2018-05-26T12:10:03.084Z,6432.00
2018-05-26T12:11:03.032Z,6376.00
2018-05-26T12:12:56.378Z,6360.00
2018-05-26T12:13:56.304Z,6368.00
2018-05-26T12:15:49.719Z,6332.00
2018-05-26T12:16:49.540Z,6392.00
2018-05-26T12:18:42.834Z,6576.00
2018-05-26T12:19:42.775Z,6580.00
2018-05-26T12:21:36.080Z,6548.00
2018-05-26T12:22:36.011Z,6592.00
2018-05-26T12:24:29.298Z,6560.00
2018-05-26T12:25:29.254Z,6548.00
2018-05-26T12:27:22.558Z,6456.00
2018-05-26T12:28:22.484Z,6524.00
2018-05-26T12:30:15.779Z,6516.00
2018-05-26T12:31:15.728Z,6504.00
2018-05-26T12:33:09.035Z,6436.00
2018-05-26T12:34:08.962Z,6452.00
2018-05-26T12:36:02.405Z,6704.00
2018-05-26T12:37:02.287Z,6656.00
2018-05-26T12:38:55.683Z,6424.00
2018-05-26T12:39:55.524Z,6304.00
2018-05-26T12:41:48.831Z,6344.00
2018-05-26T12:42:48.765Z,6592.00
2018-05-26T12:44:42.155Z,6828.00
2018-05-26T12:45:42.019Z,6760.00
2018-05-26T12:47:35.323Z,6600.00
2018-05-26T12:48:35.251Z,6584.00
2018-05-26T12:50:28.540Z,6564.00
2018-05-26T12:51:28.488Z,6544.00
2018-05-26T12:53:21.794Z,6692.00
2018-05-26T12:54:21.724Z,6740.00
2018-05-26T12:56:15.031Z,6992.00
2018-05-26T12:57:14.961Z,7084.00
2018-05-26T12:59:08.340Z,7172.00
2018-05-26T13:00:08.288Z,7088.00
2018-05-26T13:02:01.598Z,7068.00
2018-05-26T13:03:01.527Z,7128.00
2018-05-26T13:04:54.926Z,6980.00
2018-05-26T13:05:54.762Z,6764.00
2018-05-26T13:07:48.088Z,6508.00
2018-05-26T13:08:48.006Z,6448.00
2018-05-26T13:10:41.399Z,6392.00
2018-05-26T13:11:41.261Z,6428.00
2018-05-26T13:13:34.579Z,6272.00
2018-05-26T13:14:34.510Z,6188.00
2018-05-26T13:16:27.354Z,6072.00
2018-05-26T13:17:27.277Z,6080.00
2018-05-26T13:19:20.575Z,6092.00
2018-05-26T13:20:20.529Z,6056.00
2018-05-26T13:22:13.863Z,6056.00
2018-05-26T13:23:13.791Z,5980.00
2018-05-26T13:25:07.094Z,5916.00
2018-05-26T13:26:07.040Z,4640.00
2018-05-26T13:28:00.371Z,5864.00
2018-05-26T13:29:00.293Z,5904.00
2018-05-26T13:30:53.592Z,6076.00
2018-05-26T13:31:53.541Z,6224.00
2018-05-26T13:33:46.956Z,6280.00
2018-05-26T13:34:46.780Z,6288.00
2018-05-26T13:36:40.108Z,6308.00
2018-05-26T13:37:40.034Z,6392.00
2018-05-26T13:39:33.323Z,6288.00
2018-05-26T13:40:33.269Z,6284.00
2018-05-26T13:42:26.584Z,6368.00
2018-05-26T13:43:26.514Z,6380.00
2018-05-26T13:45:19.909Z,6604.00
2018-05-26T13:46:19.754Z,6824.00
2018-05-26T13:48:13.063Z,6964.00
2018-05-26T13:49:12.998Z,6968.00
2018-05-26T13:51:06.388Z,5132.00
2018-05-26T13:52:06.326Z,7024.00
2018-05-26T13:53:59.660Z,7336.00
2018-05-26T13:54:59.607Z,7160.00
2018-05-26T13:56:52.834Z,6768.00
2018-05-26T13:57:52.780Z,6604.00
2018-05-26T13:59:46.194Z,6464.00
2018-05-26T14:00:46.027Z,6396.00
2018-05-26T14:02:39.333Z,6268.00
2018-05-26T14:03:39.264Z,6120.00
2018-05-26T14:05:32.550Z,6080.00
2018-05-26T14:06:32.501Z,5888.00
2018-05-26T14:08:25.808Z,5752.00
2018-05-26T14:09:25.735Z,5724.00
2018-05-26T14:11:19.023Z,5724.00
2018-05-26T14:12:18.973Z,5816.00
2018-05-26T14:14:12.358Z,5828.00
2018-05-26T14:15:12.286Z,5848.00
2018-05-26T14:17:05.585Z,5884.00
2018-05-26T14:18:05.535Z,5896.00
2018-05-26T14:19:58.950Z,5908.00
2018-05-26T14:20:58.771Z,5876.00
2018-05-26T14:22:52.081Z,5860.00
2018-05-26T14:23:52.009Z,5888.00
2018-05-26T14:25:45.405Z,5928.00
2018-05-26T14:26:45.245Z,5940.00
2018-05-26T14:28:38.554Z,5904.00
2018-05-26T14:29:38.483Z,5940.00
2018-05-26T14:31:31.772Z,6152.00
2018-05-26T14:32:31.719Z,6152.00
2018-05-26T14:34:25.032Z,6204.00
2018-05-26T14:35:24.960Z,6192.00
2018-05-26T14:37:18.358Z,6132.00
2018-05-26T14:38:18.199Z,6132.00
2018-05-26T14:40:11.509Z,6228.00
2018-05-26T14:41:11.438Z,6256.00
2018-05-26T14:43:04.764Z,6300.00
2018-05-26T14:44:04.701Z,6204.00
2018-05-26T14:45:57.978Z,4036.00
2018-05-26T14:46:57.926Z,3936.00
2018-05-26T14:48:51.236Z,3604.00
2018-05-26T14:49:51.173Z,3544.00
2018-05-26T14:51:44.453Z,3444.00
2018-05-26T14:52:44.403Z,3460.00
2018-05-26T14:54:37.816Z,4884.00
2018-05-26T14:55:37.638Z,5588.00
2018-05-26T14:57:30.939Z,5616.00
2018-05-26T14:58:30.889Z,5548.00
2018-05-26T15:00:24.196Z,5528.00
2018-05-26T15:01:24.131Z,5484.00
2018-05-26T15:03:17.434Z,5392.00
2018-05-26T15:04:17.365Z,5232.00
2018-05-26T15:06:10.654Z,3472.00
2018-05-26T15:07:10.601Z,3524.00
2018-05-26T15:09:03.909Z,3588.00
2018-05-26T15:10:03.845Z,3608.00
2018-05-26T15:11:57.127Z,3680.00
2018-05-26T15:12:57.278Z,3668.00
2018-05-26T15:14:50.386Z,3648.00
2018-05-26T15:15:50.317Z,3792.00
2018-05-26T15:17:43.710Z,5352.00
2018-05-26T15:18:43.558Z,5376.00
2018-05-26T15:20:36.866Z,5216.00
2018-05-26T15:21:36.794Z,4844.00
2018-05-26T15:23:30.113Z,5044.00
2018-05-26T15:24:30.040Z,5072.00
2018-05-26T15:26:23.327Z,5232.00
2018-05-26T15:27:23.279Z,5264.00
2018-05-26T15:29:16.589Z,3868.00
2018-05-26T15:30:16.524Z,3944.00
2018-05-26T15:32:09.807Z,3992.00
2018-05-26T15:33:09.757Z,3972.00
2018-05-26T15:35:03.083Z,4044.00
2018-05-26T15:36:03.011Z,5468.00
2018-05-26T15:37:56.345Z,5596.00
2018-05-26T15:38:56.291Z,5472.00
2018-05-26T15:40:49.709Z,5076.00
2018-05-26T15:41:49.530Z,5036.00
2018-05-26T15:43:42.834Z,5000.00
2018-05-26T15:44:42.764Z,4960.00
2018-05-26T15:46:36.054Z,4824.00
2018-05-26T15:47:36.001Z,4780.00
2018-05-26T15:49:29.477Z,4764.00
2018-05-26T15:50:29.409Z,4744.00
2018-05-26T15:52:22.711Z,4748.00
2018-05-26T15:53:22.655Z,4724.00
2018-05-26T15:55:15.986Z,4624.00
2018-05-26T15:56:15.882Z,4532.00
2018-05-26T15:58:09.174Z,4316.00
2018-05-26T15:59:09.120Z,4252.00
2018-05-26T16:01:02.430Z,4304.00
2018-05-26T16:02:02.363Z,4308.00
2018-05-26T16:03:55.678Z,4296.00
2018-05-26T16:04:55.605Z,4340.00
2018-05-26T16:06:48.902Z,4396.00
2018-05-26T16:07:48.845Z,4368.00
2018-05-26T16:09:42.267Z,4388.00
2018-05-26T16:10:42.098Z,3948.00
2018-05-26T16:12:35.468Z,3184.00
2018-05-26T16:13:35.413Z,3284.00
2018-05-26T16:15:28.739Z,3632.00
2018-05-26T16:16:28.658Z,3964.00
2018-05-26T16:18:21.958Z,4868.00
2018-05-26T16:19:21.908Z,4996.00
2018-05-26T16:21:15.229Z,5076.00
2018-05-26T16:22:15.159Z,5004.00
2018-05-26T16:24:08.474Z,4884.00
2018-05-26T16:25:08.405Z,4788.00
2018-05-26T16:27:01.705Z,4508.00
2018-05-26T16:28:01.652Z,4400.00
2018-05-26T16:29:54.969Z,4196.00
2018-05-26T16:30:54.896Z,4176.00
2018-05-26T16:32:48.194Z,4128.00
2018-05-26T16:33:48.143Z,4072.00
2018-05-26T16:35:41.556Z,3908.00
2018-05-26T16:36:41.414Z,3784.00
2018-05-26T16:38:34.710Z,3740.00
2018-05-26T16:39:34.657Z,2796.00
2018-05-26T16:41:27.974Z,3620.00
2018-05-26T16:42:27.903Z,3540.00
2018-05-26T16:44:21.220Z,3076.00
2018-05-26T16:45:21.184Z,2552.00
2018-05-26T16:47:14.453Z,2472.00
2018-05-26T16:48:14.396Z,2472.00
2018-05-26T16:50:08.713Z,2508.00
2018-05-26T16:51:08.641Z,2548.00
2018-05-26T16:53:01.941Z,2900.00
2018-05-26T16:54:01.891Z,3604.00
2018-05-26T16:55:55.206Z,3676.00
2018-05-26T16:56:55.134Z,3888.00
2018-05-26T16:58:48.464Z,3864.00
2018-05-26T16:59:48.391Z,3724.00
2018-05-26T17:01:41.695Z,3996.00
2018-05-26T17:02:41.627Z,4024.00
2018-05-26T17:04:34.941Z,3756.00
2018-05-26T17:05:34.873Z,3504.00
2018-05-26T17:07:28.162Z,3248.00
2018-05-26T17:08:28.105Z,3232.00
2018-05-26T17:10:21.421Z,3176.00
2018-05-26T17:11:21.349Z,3132.00
2018-05-26T17:13:14.653Z,3080.00
2018-05-26T17:14:14.595Z,3048.00
2018-05-26T17:16:07.917Z,2988.00
2018-05-26T17:17:07.842Z,2960.00
2018-05-26T17:19:01.139Z,2908.00
2018-05-26T17:20:01.086Z,2880.00
2018-05-26T17:21:54.404Z,2820.00
2018-05-26T17:22:54.329Z,2792.00
2018-05-26T17:24:47.646Z,2716.00
2018-05-26T17:25:47.575Z,2696.00
2018-05-26T17:27:40.874Z,2656.00
2018-05-26T17:28:40.822Z,2628.00
2018-05-26T17:30:34.143Z,2596.00
2018-05-26T17:31:34.066Z,2580.00
2018-05-26T17:33:27.480Z,2568.00
2018-05-26T17:34:27.414Z,2556.00
2018-05-26T17:36:20.830Z,2520.00
2018-05-26T17:37:20.674Z,2500.00
2018-05-26T17:39:13.962Z,2452.00
2018-05-26T17:40:13.911Z,2424.00
2018-05-26T17:42:07.248Z,2376.00
2018-05-26T17:43:07.153Z,2352.00